KPLR/PLR METAR and TAF weather

Enter ICAO airport designator
Station Type Date Time Source
KPLR METAR 2019/08/25 02:35 UTC NOAA

KPLR 250235Z AUTO 00000KT 9SM FEW075 FEW090 24/24 A3004 RMK A01


Station Type Date Time Source
KPLR Decoded METAR 2019/08/25 02:35 UTC NOAA

Station name not available
Aug 24, 2019 - 10:35 PM EDT / 2019.08.25 0235 UTC
Wind: Calm:0
Visibility: 9 mile(s):0
Sky conditions: mostly clear
Temperature: 75 F (24 C)
Dew Point: 75 F (24 C)
Relative Humidity: 100%
Pressure (altimeter): 30.04 in. Hg (1017 hPa)
ob: KPLR 250235Z AUTO 00000KT 9SM FEW075 FEW090 24/24 A3004 RMK A01
cycle: 2

Station Type Date Time Source
KPLR TAF UTC NOAA

Error!

Example: see airport list